Hlavní strana
METAR-TAF:

METAR-TAF

Letiště :

Letiště Pulkovo

Petrohrad, Rusko

zeměpisná šířka: 59-58N, zeměpisná délka: 030-18E, výška: 4 m

Aktuální stav počasí

Zpráva byla vytvořena před 37 minutami, v 01:30 UTC
Západojihozápadní vítr 4 kt, proměnlivý mezi jihozápadním a západním
Teplota 1°C
Vlhkost vzduchu 86%
Tlak 1011 hPa
Viditelnost 10 km a více
Žádná oblačnost pod 1500 m, nevyskytují se cumulonimby.

METAR: ULLI 090130Z 25002MPS 220V280 CAVOK 01/M01 Q1011 R28L/090060 NOSIG

Čas: 05:07 (02:07 UTC)

Předpověď počasí

Zpráva byla vytvořena před 3 hodinami a 4 minutami, v 23:03 UTC
Předpověď platná od 09 v 00 UTC do 09 v 24 UTC
Západní vítr 6 kt
Viditelnost 10 km a více
Polojasno ve výšce 1600 ft
Dočasný
od 09 v 00 UTC do 09 v 06 UTC
Viditelnost: 0300 m
Polojasno ve výšce 300 ft
mlha
Změna
od 09 v 15 UTC do 09 v 17 UTC
Jihojihozápadní vítr 6 kt

TAF: ULLI 082303Z 0900/0924 26003MPS 9999 SCT016 TEMPO 0900/0906 0300 FG SCT003 BECMG 0915/0917 20003MPS

Stav a předpovědi počasí z více než 4 000 letišť (zprávy METAR a TAF).

Červené a žluté tečky na mapě představují dostupné meteorologické stanice.

Když kurzor umístíte na tečku, zobrazí se název stanice.

Pak kliknutím zobrazíte stav a předpověď počasí.

Chcete-li změnit mapu, kliknutím na zelené tlačítko se znaménkem +mapu přiblížíte, kliknutím na zelené tlačítko se znaménkem – mapu oddálíte a kliknutím na zelené šipky přejdete na sousední mapy.


METAR-TAF: